sensor_id;sensor_type;location;lat;lon;timestamp;temperature;humidity
17341;DHT22;8788;49.930;8.660;2023-04-24T00:00:54;13.60;99.90
17341;DHT22;8788;49.930;8.660;2023-04-24T00:03:22;13.60;99.90
17341;DHT22;8788;49.930;8.660;2023-04-24T00:05:49;13.50;99.90
17341;DHT22;8788;49.930;8.660;2023-04-24T00:08:16;13.60;99.90
17341;DHT22;8788;49.930;8.660;2023-04-24T00:10:44;13.60;99.90
17341;DHT22;8788;49.930;8.660;2023-04-24T00:13:12;13.60;99.90
17341;DHT22;8788;49.930;8.660;2023-04-24T00:15:39;13.60;99.90
17341;DHT22;8788;49.930;8.660;2023-04-24T00:18:06;13.60;99.90
17341;DHT22;8788;49.930;8.660;2023-04-24T00:20:34;13.60;99.90
17341;DHT22;8788;49.930;8.660;2023-04-24T00:23:01;13.60;99.90
17341;DHT22;8788;49.930;8.660;2023-04-24T00:25:29;13.60;99.90
17341;DHT22;8788;49.930;8.660;2023-04-24T00:27:56;13.60;99.90
17341;DHT22;8788;49.930;8.660;2023-04-24T00:30:24;13.60;99.90
17341;DHT22;8788;49.930;8.660;2023-04-24T00:32:52;13.60;99.90
17341;DHT22;8788;49.930;8.660;2023-04-24T00:35:19;13.60;99.90
17341;DHT22;8788;49.930;8.660;2023-04-24T00:37:46;13.60;99.90
17341;DHT22;8788;49.930;8.660;2023-04-24T00:40:13;13.60;99.90
17341;DHT22;8788;49.930;8.660;2023-04-24T00:42:43;13.60;99.90
17341;DHT22;8788;49.930;8.660;2023-04-24T00:45:11;13.60;99.90
17341;DHT22;8788;49.930;8.660;2023-04-24T00:47:41;13.60;99.90
17341;DHT22;8788;49.930;8.660;2023-04-24T00:50:09;13.50;99.90
17341;DHT22;8788;49.930;8.660;2023-04-24T00:52:37;13.50;99.90
17341;DHT22;8788;49.930;8.660;2023-04-24T00:55:07;13.50;99.90
17341;DHT22;8788;49.930;8.660;2023-04-24T00:57:34;13.50;99.90
17341;DHT22;8788;49.930;8.660;2023-04-24T01:00:01;13.50;99.90
17341;DHT22;8788;49.930;8.660;2023-04-24T01:02:32;13.50;99.90
17341;DHT22;8788;49.930;8.660;2023-04-24T01:05:01;13.50;99.90
17341;DHT22;8788;49.930;8.660;2023-04-24T01:07:29;13.50;99.90
17341;DHT22;8788;49.930;8.660;2023-04-24T01:09:56;13.50;99.90
17341;DHT22;8788;49.930;8.660;2023-04-24T01:12:24;13.50;99.90
17341;DHT22;8788;49.930;8.660;2023-04-24T01:14:51;13.40;99.90
17341;DHT22;8788;49.930;8.660;2023-04-24T01:17:18;13.40;99.90
17341;DHT22;8788;49.930;8.660;2023-04-24T01:19:47;13.40;99.90
17341;DHT22;8788;49.930;8.660;2023-04-24T01:22:15;13.40;99.90
17341;DHT22;8788;49.930;8.660;2023-04-24T01:24:43;13.40;99.90
17341;DHT22;8788;49.930;8.660;2023-04-24T01:27:12;13.40;99.90
17341;DHT22;8788;49.930;8.660;2023-04-24T01:29:39;13.30;99.90
17341;DHT22;8788;49.930;8.660;2023-04-24T01:32:09;13.30;99.90
17341;DHT22;8788;49.930;8.660;2023-04-24T01:34:37;13.30;99.90
17341;DHT22;8788;49.930;8.660;2023-04-24T01:37:04;13.30;99.90
17341;DHT22;8788;49.930;8.660;2023-04-24T01:39:35;13.20;99.90
17341;DHT22;8788;49.930;8.660;2023-04-24T01:42:02;13.20;99.90
17341;DHT22;8788;49.930;8.660;2023-04-24T01:44:30;13.20;99.90
17341;DHT22;8788;49.930;8.660;2023-04-24T01:46:57;13.20;99.90
17341;DHT22;8788;49.930;8.660;2023-04-24T01:49:25;13.20;99.90
17341;DHT22;8788;49.930;8.660;2023-04-24T01:51:52;13.20;99.90
17341;DHT22;8788;49.930;8.660;2023-04-24T01:54:19;13.10;99.90
17341;DHT22;8788;49.930;8.660;2023-04-24T01:56:47;13.10;99.90
17341;DHT22;8788;49.930;8.660;2023-04-24T01:59:15;13.10;99.90
17341;DHT22;8788;49.930;8.660;2023-04-24T02:01:43;13.10;99.90
17341;DHT22;8788;49.930;8.660;2023-04-24T02:04:10;13.20;99.90
17341;DHT22;8788;49.930;8.660;2023-04-24T02:06:37;13.20;99.90
17341;DHT22;8788;49.930;8.660;2023-04-24T02:09:05;13.20;99.90
17341;DHT22;8788;49.930;8.660;2023-04-24T02:11:32;13.20;99.90
17341;DHT22;8788;49.930;8.660;2023-04-24T02:14:00;13.20;99.90
17341;DHT22;8788;49.930;8.660;2023-04-24T02:16:28;13.20;99.90
17341;DHT22;8788;49.930;8.660;2023-04-24T02:18:58;13.20;99.90
17341;DHT22;8788;49.930;8.660;2023-04-24T02:21:25;13.20;99.90
17341;DHT22;8788;49.930;8.660;2023-04-24T02:23:53;13.10;99.90
17341;DHT22;8788;49.930;8.660;2023-04-24T02:26:20;13.10;99.90
17341;DHT22;8788;49.930;8.660;2023-04-24T02:28:47;13.10;99.90
17341;DHT22;8788;49.930;8.660;2023-04-24T02:31:16;13.10;99.90
17341;DHT22;8788;49.930;8.660;2023-04-24T02:33:43;13.10;99.90
17341;DHT22;8788;49.930;8.660;2023-04-24T02:36:10;13.10;99.90
17341;DHT22;8788;49.930;8.660;2023-04-24T02:38:38;13.00;99.90
17341;DHT22;8788;49.930;8.660;2023-04-24T02:41:05;13.10;99.90
17341;DHT22;8788;49.930;8.660;2023-04-24T02:43:33;13.00;99.90
17341;DHT22;8788;49.930;8.660;2023-04-24T02:46:00;13.00;99.90
17341;DHT22;8788;49.930;8.660;2023-04-24T02:48:28;13.00;99.90
17341;DHT22;8788;49.930;8.660;2023-04-24T02:50:55;13.00;99.90
17341;DHT22;8788;49.930;8.660;2023-04-24T02:53:23;13.00;99.90
17341;DHT22;8788;49.930;8.660;2023-04-24T02:55:50;12.90;99.90
17341;DHT22;8788;49.930;8.660;2023-04-24T02:58:18;12.90;99.90
17341;DHT22;8788;49.930;8.660;2023-04-24T03:00:46;12.90;99.90
17341;DHT22;8788;49.930;8.660;2023-04-24T03:03:13;12.90;99.90
17341;DHT22;8788;49.930;8.660;2023-04-24T03:05:42;12.90;99.90
17341;DHT22;8788;49.930;8.660;2023-04-24T03:08:09;12.90;99.90
17341;DHT22;8788;49.930;8.660;2023-04-24T03:10:37;12.90;99.90
17341;DHT22;8788;49.930;8.660;2023-04-24T03:13:04;12.80;99.90
17341;DHT22;8788;49.930;8.660;2023-04-24T03:15:31;12.80;99.90
17341;DHT22;8788;49.930;8.660;2023-04-24T03:17:58;12.70;99.90
17341;DHT22;8788;49.930;8.660;2023-04-24T03:20:26;12.70;99.90
17341;DHT22;8788;49.930;8.660;2023-04-24T03:22:57;12.70;99.90
17341;DHT22;8788;49.930;8.660;2023-04-24T03:25:25;12.70;99.90
17341;DHT22;8788;49.930;8.660;2023-04-24T03:27:52;12.70;99.90
17341;DHT22;8788;49.930;8.660;2023-04-24T03:30:42;12.70;99.90
17341;DHT22;8788;49.930;8.660;2023-04-24T03:33:10;12.60;99.90
17341;DHT22;8788;49.930;8.660;2023-04-24T03:35:44;12.60;99.90
17341;DHT22;8788;49.930;8.660;2023-04-24T03:38:13;12.60;99.90
17341;DHT22;8788;49.930;8.660;2023-04-24T03:40:59;12.50;99.90
17341;DHT22;8788;49.930;8.660;2023-04-24T03:43:35;12.40;99.90
17341;DHT22;8788;49.930;8.660;2023-04-24T03:46:04;12.40;99.90
17341;DHT22;8788;49.930;8.660;2023-04-24T03:48:35;12.40;99.90
17341;DHT22;8788;49.930;8.660;2023-04-24T03:51:02;12.30;99.90
17341;DHT22;8788;49.930;8.660;2023-04-24T03:53:32;12.30;99.90
17341;DHT22;8788;49.930;8.660;2023-04-24T03:55:59;12.20;99.90
17341;DHT22;8788;49.930;8.660;2023-04-24T03:58:27;12.20;99.90
17341;DHT22;8788;49.930;8.660;2023-04-24T04:00:55;12.20;99.90
17341;DHT22;8788;49.930;8.660;2023-04-24T04:03:42;12.10;99.90
17341;DHT22;8788;49.930;8.660;2023-04-24T04:06:09;12.00;99.90
17341;DHT22;8788;49.930;8.660;2023-04-24T04:08:40;12.00;99.90
17341;DHT22;8788;49.930;8.660;2023-04-24T04:11:07;11.90;99.90
17341;DHT22;8788;49.930;8.660;2023-04-24T04:13:34;11.90;99.90
17341;DHT22;8788;49.930;8.660;2023-04-24T04:16:02;11.80;99.90
17341;DHT22;8788;49.930;8.660;2023-04-24T04:18:29;11.80;99.90
17341;DHT22;8788;49.930;8.660;2023-04-24T04:20:56;11.80;99.90
17341;DHT22;8788;49.930;8.660;2023-04-24T04:23:24;11.80;99.90
17341;DHT22;8788;49.930;8.660;2023-04-24T04:26:11;11.70;99.90
17341;DHT22;8788;49.930;8.660;2023-04-24T04:28:58;11.70;99.90
17341;DHT22;8788;49.930;8.660;2023-04-24T04:31:26;11.70;99.90
17341;DHT22;8788;49.930;8.660;2023-04-24T04:33:55;11.70;99.90
17341;DHT22;8788;49.930;8.660;2023-04-24T04:36:22;11.70;99.90
17341;DHT22;8788;49.930;8.660;2023-04-24T04:38:56;11.80;99.90
17341;DHT22;8788;49.930;8.660;2023-04-24T04:41:49;11.80;99.90
17341;DHT22;8788;49.930;8.660;2023-04-24T04:44:18;11.70;99.90
17341;DHT22;8788;49.930;8.660;2023-04-24T04:46:45;11.70;99.90
17341;DHT22;8788;49.930;8.660;2023-04-24T04:49:24;11.60;99.90
17341;DHT22;8788;49.930;8.660;2023-04-24T04:51:54;11.70;99.90
17341;DHT22;8788;49.930;8.660;2023-04-24T04:54:24;11.70;99.90
17341;DHT22;8788;49.930;8.660;2023-04-24T04:56:52;11.60;99.90
17341;DHT22;8788;49.930;8.660;2023-04-24T04:59:20;11.70;99.90
17341;DHT22;8788;49.930;8.660;2023-04-24T05:01:50;11.70;99.90
17341;DHT22;8788;49.930;8.660;2023-04-24T05:04:17;11.80;99.90
17341;DHT22;8788;49.930;8.660;2023-04-24T05:06:46;11.80;99.90
17341;DHT22;8788;49.930;8.660;2023-04-24T05:09:13;11.80;99.90
17341;DHT22;8788;49.930;8.660;2023-04-24T05:11:47;11.80;99.90
17341;DHT22;8788;49.930;8.660;2023-04-24T05:14:16;11.90;99.90
17341;DHT22;8788;49.930;8.660;2023-04-24T05:16:44;12.00;99.90
17341;DHT22;8788;49.930;8.660;2023-04-24T05:19:12;12.00;99.90
17341;DHT22;8788;49.930;8.660;2023-04-24T05:21:41;12.00;99.90
17341;DHT22;8788;49.930;8.660;2023-04-24T05:24:09;12.00;99.90
17341;DHT22;8788;49.930;8.660;2023-04-24T05:26:59;12.00;99.90
17341;DHT22;8788;49.930;8.660;2023-04-24T05:29:35;11.90;99.90
17341;DHT22;8788;49.930;8.660;2023-04-24T05:32:04;11.80;99.90
17341;DHT22;8788;49.930;8.660;2023-04-24T05:34:31;11.80;99.90
17341;DHT22;8788;49.930;8.660;2023-04-24T05:36:58;11.90;99.90
17341;DHT22;8788;49.930;8.660;2023-04-24T05:39:25;11.90;99.90
17341;DHT22;8788;49.930;8.660;2023-04-24T05:41:53;12.10;99.90
17341;DHT22;8788;49.930;8.660;2023-04-24T05:44:23;12.10;99.90
17341;DHT22;8788;49.930;8.660;2023-04-24T05:46:53;12.10;99.90
17341;DHT22;8788;49.930;8.660;2023-04-24T05:49:21;12.10;99.90
17341;DHT22;8788;49.930;8.660;2023-04-24T05:51:49;12.20;99.90
17341;DHT22;8788;49.930;8.660;2023-04-24T05:54:17;12.20;99.90
17341;DHT22;8788;49.930;8.660;2023-04-24T05:56:45;12.40;99.90
17341;DHT22;8788;49.930;8.660;2023-04-24T05:59:17;12.60;99.90
17341;DHT22;8788;49.930;8.660;2023-04-24T06:01:45;12.70;99.90
17341;DHT22;8788;49.930;8.660;2023-04-24T06:04:20;12.60;99.90
17341;DHT22;8788;49.930;8.660;2023-04-24T06:06:47;12.50;99.90
17341;DHT22;8788;49.930;8.660;2023-04-24T06:09:17;12.50;99.90
17341;DHT22;8788;49.930;8.660;2023-04-24T06:11:44;12.50;99.90
17341;DHT22;8788;49.930;8.660;2023-04-24T06:14:13;12.40;99.90
17341;DHT22;8788;49.930;8.660;2023-04-24T06:16:59;12.40;99.90
17341;DHT22;8788;49.930;8.660;2023-04-24T06:19:34;12.20;99.90
17341;DHT22;8788;49.930;8.660;2023-04-24T06:22:01;12.20;99.90
17341;DHT22;8788;49.930;8.660;2023-04-24T06:24:29;12.20;99.90
17341;DHT22;8788;49.930;8.660;2023-04-24T06:26:57;12.30;99.90
17341;DHT22;8788;49.930;8.660;2023-04-24T06:29:25;12.30;99.90
17341;DHT22;8788;49.930;8.660;2023-04-24T06:31:52;12.30;99.90
17341;DHT22;8788;49.930;8.660;2023-04-24T06:34:19;12.30;99.90
17341;DHT22;8788;49.930;8.660;2023-04-24T06:36:48;12.30;99.90
17341;DHT22;8788;49.930;8.660;2023-04-24T06:39:15;12.30;99.90
17341;DHT22;8788;49.930;8.660;2023-04-24T06:41:42;12.40;99.90
17341;DHT22;8788;49.930;8.660;2023-04-24T06:44:18;12.40;99.90
17341;DHT22;8788;49.930;8.660;2023-04-24T06:46:45;12.50;99.90
17341;DHT22;8788;49.930;8.660;2023-04-24T06:49:12;12.60;99.90
17341;DHT22;8788;49.930;8.660;2023-04-24T06:51:41;12.60;99.90
17341;DHT22;8788;49.930;8.660;2023-04-24T06:54:10;12.70;99.90
17341;DHT22;8788;49.930;8.660;2023-04-24T06:56:37;12.80;99.90
17341;DHT22;8788;49.930;8.660;2023-04-24T06:59:04;12.60;99.90
17341;DHT22;8788;49.930;8.660;2023-04-24T07:01:31;12.70;99.90
17341;DHT22;8788;49.930;8.660;2023-04-24T07:03:58;12.70;99.90
17341;DHT22;8788;49.930;8.660;2023-04-24T07:06:25;12.70;99.90
17341;DHT22;8788;49.930;8.660;2023-04-24T07:08:53;12.80;99.90
17341;DHT22;8788;49.930;8.660;2023-04-24T07:11:23;12.90;99.90
17341;DHT22;8788;49.930;8.660;2023-04-24T07:13:55;12.90;99.90
17341;DHT22;8788;49.930;8.660;2023-04-24T07:16:22;12.80;99.90
17341;DHT22;8788;49.930;8.660;2023-04-24T07:18:49;12.80;99.90
17341;DHT22;8788;49.930;8.660;2023-04-24T07:21:16;12.70;99.90
17341;DHT22;8788;49.930;8.660;2023-04-24T07:23:43;12.60;99.90
17341;DHT22;8788;49.930;8.660;2023-04-24T07:26:10;12.50;99.90
17341;DHT22;8788;49.930;8.660;2023-04-24T07:28:38;12.60;99.90
17341;DHT22;8788;49.930;8.660;2023-04-24T07:31:06;12.60;99.90
17341;DHT22;8788;49.930;8.660;2023-04-24T07:33:33;12.60;99.90
17341;DHT22;8788;49.930;8.660;2023-04-24T07:36:01;12.60;99.90
17341;DHT22;8788;49.930;8.660;2023-04-24T07:38:29;12.60;99.90
17341;DHT22;8788;49.930;8.660;2023-04-24T07:40:57;12.60;99.90
17341;DHT22;8788;49.930;8.660;2023-04-24T07:43:24;12.70;99.90
17341;DHT22;8788;49.930;8.660;2023-04-24T07:45:52;12.70;99.90
17341;DHT22;8788;49.930;8.660;2023-04-24T07:48:19;12.70;99.90
17341;DHT22;8788;49.930;8.660;2023-04-24T07:50:47;12.70;99.90
17341;DHT22;8788;49.930;8.660;2023-04-24T07:53:15;12.80;99.90
17341;DHT22;8788;49.930;8.660;2023-04-24T07:55:42;13.00;99.90
17341;DHT22;8788;49.930;8.660;2023-04-24T07:58:09;13.00;99.90
17341;DHT22;8788;49.930;8.660;2023-04-24T08:00:36;12.90;99.90
17341;DHT22;8788;49.930;8.660;2023-04-24T08:03:04;13.00;99.90
17341;DHT22;8788;49.930;8.660;2023-04-24T08:05:31;13.10;99.90
17341;DHT22;8788;49.930;8.660;2023-04-24T08:07:59;13.20;99.90
17341;DHT22;8788;49.930;8.660;2023-04-24T08:10:26;13.20;99.90
17341;DHT22;8788;49.930;8.660;2023-04-24T08:12:53;13.10;99.90
17341;DHT22;8788;49.930;8.660;2023-04-24T08:15:21;13.10;99.90
17341;DHT22;8788;49.930;8.660;2023-04-24T08:17:48;13.20;99.90
17341;DHT22;8788;49.930;8.660;2023-04-24T08:20:16;13.30;99.90
17341;DHT22;8788;49.930;8.660;2023-04-24T08:22:44;13.60;99.90
17341;DHT22;8788;49.930;8.660;2023-04-24T08:25:13;13.70;99.90
17341;DHT22;8788;49.930;8.660;2023-04-24T08:27:40;13.70;99.90
17341;DHT22;8788;49.930;8.660;2023-04-24T08:30:08;13.80;99.90
17341;DHT22;8788;49.930;8.660;2023-04-24T08:32:36;14.00;99.90
17341;DHT22;8788;49.930;8.660;2023-04-24T08:35:03;14.10;99.90
17341;DHT22;8788;49.930;8.660;2023-04-24T08:37:32;14.10;99.90
17341;DHT22;8788;49.930;8.660;2023-04-24T08:40:00;14.20;99.90
17341;DHT22;8788;49.930;8.660;2023-04-24T08:42:28;14.40;99.90
17341;DHT22;8788;49.930;8.660;2023-04-24T08:44:58;14.30;99.90
17341;DHT22;8788;49.930;8.660;2023-04-24T08:47:26;14.30;99.90
17341;DHT22;8788;49.930;8.660;2023-04-24T08:49:54;14.30;99.90
17341;DHT22;8788;49.930;8.660;2023-04-24T08:52:22;14.40;99.90
17341;DHT22;8788;49.930;8.660;2023-04-24T08:54:51;14.50;99.90
17341;DHT22;8788;49.930;8.660;2023-04-24T08:57:19;14.40;99.90
17341;DHT22;8788;49.930;8.660;2023-04-24T08:59:47;14.30;99.90
17341;DHT22;8788;49.930;8.660;2023-04-24T09:02:14;14.10;99.90
17341;DHT22;8788;49.930;8.660;2023-04-24T09:04:43;14.00;99.90
17341;DHT22;8788;49.930;8.660;2023-04-24T09:07:12;14.00;99.90
17341;DHT22;8788;49.930;8.660;2023-04-24T09:09:41;13.90;99.90
17341;DHT22;8788;49.930;8.660;2023-04-24T09:12:10;13.80;99.90
17341;DHT22;8788;49.930;8.660;2023-04-24T09:14:38;13.80;99.90
17341;DHT22;8788;49.930;8.660;2023-04-24T09:17:08;13.70;99.90
17341;DHT22;8788;49.930;8.660;2023-04-24T09:19:35;13.70;99.90
17341;DHT22;8788;49.930;8.660;2023-04-24T09:22:05;13.70;99.90
17341;DHT22;8788;49.930;8.660;2023-04-24T09:24:34;13.60;99.90
17341;DHT22;8788;49.930;8.660;2023-04-24T09:27:01;13.60;99.90
17341;DHT22;8788;49.930;8.660;2023-04-24T09:29:30;13.50;99.90
17341;DHT22;8788;49.930;8.660;2023-04-24T09:31:58;13.50;99.90
17341;DHT22;8788;49.930;8.660;2023-04-24T09:34:27;13.40;99.90
17341;DHT22;8788;49.930;8.660;2023-04-24T09:36:54;13.30;99.90
17341;DHT22;8788;49.930;8.660;2023-04-24T09:39:21;13.10;99.90
17341;DHT22;8788;49.930;8.660;2023-04-24T09:41:50;13.10;99.90
17341;DHT22;8788;49.930;8.660;2023-04-24T09:44:18;13.20;99.90
17341;DHT22;8788;49.930;8.660;2023-04-24T09:46:51;13.20;99.90
17341;DHT22;8788;49.930;8.660;2023-04-24T09:49:22;13.30;99.90
17341;DHT22;8788;49.930;8.660;2023-04-24T09:51:49;13.30;99.90
17341;DHT22;8788;49.930;8.660;2023-04-24T09:54:18;13.30;99.90
17341;DHT22;8788;49.930;8.660;2023-04-24T09:56:48;13.20;99.90
17341;DHT22;8788;49.930;8.660;2023-04-24T09:59:16;13.20;99.90
17341;DHT22;8788;49.930;8.660;2023-04-24T10:01:43;13.20;99.90
17341;DHT22;8788;49.930;8.660;2023-04-24T10:04:20;13.30;99.90
17341;DHT22;8788;49.930;8.660;2023-04-24T10:06:49;13.60;99.90
17341;DHT22;8788;49.930;8.660;2023-04-24T10:09:17;13.90;99.90
17341;DHT22;8788;49.930;8.660;2023-04-24T10:11:46;13.90;99.90
17341;DHT22;8788;49.930;8.660;2023-04-24T10:14:14;13.90;99.90
17341;DHT22;8788;49.930;8.660;2023-04-24T10:16:42;13.80;99.90
17341;DHT22;8788;49.930;8.660;2023-04-24T10:19:10;13.70;99.90
17341;DHT22;8788;49.930;8.660;2023-04-24T10:21:40;13.60;99.90
17341;DHT22;8788;49.930;8.660;2023-04-24T10:24:12;13.60;99.90
17341;DHT22;8788;49.930;8.660;2023-04-24T10:26:40;13.50;99.90
17341;DHT22;8788;49.930;8.660;2023-04-24T10:29:07;13.40;99.90
17341;DHT22;8788;49.930;8.660;2023-04-24T10:31:38;13.40;99.90
17341;DHT22;8788;49.930;8.660;2023-04-24T10:34:06;13.40;99.90
17341;DHT22;8788;49.930;8.660;2023-04-24T10:36:34;13.40;99.90
17341;DHT22;8788;49.930;8.660;2023-04-24T10:39:06;13.40;99.90
17341;DHT22;8788;49.930;8.660;2023-04-24T10:41:37;13.70;99.90
17341;DHT22;8788;49.930;8.660;2023-04-24T10:44:05;14.10;99.90
17341;DHT22;8788;49.930;8.660;2023-04-24T10:46:33;14.50;99.90
17341;DHT22;8788;49.930;8.660;2023-04-24T10:49:03;14.50;99.90
17341;DHT22;8788;49.930;8.660;2023-04-24T10:51:53;14.40;99.90
17341;DHT22;8788;49.930;8.660;2023-04-24T10:54:26;14.50;99.90
17341;DHT22;8788;49.930;8.660;2023-04-24T11:00:19;14.20;99.90
17341;DHT22;8788;49.930;8.660;2023-04-24T11:02:47;14.10;99.90
17341;DHT22;8788;49.930;8.660;2023-04-24T11:05:16;13.90;99.90
17341;DHT22;8788;49.930;8.660;2023-04-24T11:08:12;13.70;99.90
17341;DHT22;8788;49.930;8.660;2023-04-24T11:10:44;13.50;99.90
17341;DHT22;8788;49.930;8.660;2023-04-24T11:13:14;13.30;99.90
17341;DHT22;8788;49.930;8.660;2023-04-24T11:15:42;13.00;99.90
17341;DHT22;8788;49.930;8.660;2023-04-24T11:18:13;12.80;99.90
17341;DHT22;8788;49.930;8.660;2023-04-24T11:20:42;12.50;99.90
17341;DHT22;8788;49.930;8.660;2023-04-24T11:23:12;12.30;99.90
17341;DHT22;8788;49.930;8.660;2023-04-24T11:25:41;12.10;99.90
17341;DHT22;8788;49.930;8.660;2023-04-24T11:28:14;12.10;99.90
17341;DHT22;8788;49.930;8.660;2023-04-24T11:30:42;12.10;99.90
17341;DHT22;8788;49.930;8.660;2023-04-24T11:33:10;12.10;99.90
17341;DHT22;8788;49.930;8.660;2023-04-24T11:35:40;12.20;99.90
17341;DHT22;8788;49.930;8.660;2023-04-24T11:38:07;12.10;99.90
17341;DHT22;8788;49.930;8.660;2023-04-24T11:40:34;12.00;99.90
17341;DHT22;8788;49.930;8.660;2023-04-24T11:43:04;12.00;99.90
17341;DHT22;8788;49.930;8.660;2023-04-24T11:45:31;11.80;99.90
17341;DHT22;8788;49.930;8.660;2023-04-24T11:47:58;11.80;99.90
17341;DHT22;8788;49.930;8.660;2023-04-24T11:50:26;11.70;99.90
17341;DHT22;8788;49.930;8.660;2023-04-24T11:52:55;11.90;99.90
17341;DHT22;8788;49.930;8.660;2023-04-24T11:55:24;12.00;99.90
17341;DHT22;8788;49.930;8.660;2023-04-24T11:57:53;12.00;99.90
17341;DHT22;8788;49.930;8.660;2023-04-24T12:00:24;11.90;99.90
17341;DHT22;8788;49.930;8.660;2023-04-24T12:03:02;11.90;99.90
17341;DHT22;8788;49.930;8.660;2023-04-24T12:05:29;11.90;99.90
17341;DHT22;8788;49.930;8.660;2023-04-24T12:07:57;12.00;99.90
17341;DHT22;8788;49.930;8.660;2023-04-24T12:10:26;12.20;99.90
17341;DHT22;8788;49.930;8.660;2023-04-24T12:12:53;12.40;99.90
17341;DHT22;8788;49.930;8.660;2023-04-24T12:15:23;12.60;99.90
17341;DHT22;8788;49.930;8.660;2023-04-24T12:17:51;12.80;99.90
17341;DHT22;8788;49.930;8.660;2023-04-24T12:20:24;13.00;99.90
17341;DHT22;8788;49.930;8.660;2023-04-24T12:22:52;13.20;99.90
17341;DHT22;8788;49.930;8.660;2023-04-24T12:25:21;13.50;99.90
17341;DHT22;8788;49.930;8.660;2023-04-24T12:27:53;13.90;99.90
17341;DHT22;8788;49.930;8.660;2023-04-24T12:30:26;14.10;99.90
17341;DHT22;8788;49.930;8.660;2023-04-24T12:32:53;14.40;99.90
17341;DHT22;8788;49.930;8.660;2023-04-24T12:35:23;14.60;99.90
17341;DHT22;8788;49.930;8.660;2023-04-24T12:37:50;14.80;99.90
17341;DHT22;8788;49.930;8.660;2023-04-24T12:40:18;15.20;99.90
17341;DHT22;8788;49.930;8.660;2023-04-24T12:42:46;15.10;99.90
17341;DHT22;8788;49.930;8.660;2023-04-24T12:45:15;14.80;99.90
17341;DHT22;8788;49.930;8.660;2023-04-24T12:47:45;14.50;99.90
17341;DHT22;8788;49.930;8.660;2023-04-24T12:50:14;14.20;99.90
17341;DHT22;8788;49.930;8.660;2023-04-24T12:52:42;14.10;99.90
17341;DHT22;8788;49.930;8.660;2023-04-24T12:55:10;14.00;99.90
17341;DHT22;8788;49.930;8.660;2023-04-24T12:57:38;14.00;99.90
17341;DHT22;8788;49.930;8.660;2023-04-24T13:00:07;13.90;99.90
17341;DHT22;8788;49.930;8.660;2023-04-24T13:02:35;13.70;99.90
17341;DHT22;8788;49.930;8.660;2023-04-24T13:05:04;13.70;99.90
17341;DHT22;8788;49.930;8.660;2023-04-24T13:07:31;13.70;99.90
17341;DHT22;8788;49.930;8.660;2023-04-24T13:09:58;13.60;99.90
17341;DHT22;8788;49.930;8.660;2023-04-24T13:12:25;13.60;99.90
17341;DHT22;8788;49.930;8.660;2023-04-24T13:14:52;13.70;99.90
17341;DHT22;8788;49.930;8.660;2023-04-24T13:17:19;13.80;99.90
17341;DHT22;8788;49.930;8.660;2023-04-24T13:19:50;13.90;99.90
17341;DHT22;8788;49.930;8.660;2023-04-24T13:22:19;14.20;99.90
17341;DHT22;8788;49.930;8.660;2023-04-24T13:24:46;14.60;99.90
17341;DHT22;8788;49.930;8.660;2023-04-24T13:27:14;14.90;99.90
17341;DHT22;8788;49.930;8.660;2023-04-24T13:29:41;14.90;99.90
17341;DHT22;8788;49.930;8.660;2023-04-24T13:32:09;14.90;99.90
17341;DHT22;8788;49.930;8.660;2023-04-24T13:34:36;14.80;99.90
17341;DHT22;8788;49.930;8.660;2023-04-24T13:37:04;14.80;99.90
17341;DHT22;8788;49.930;8.660;2023-04-24T13:39:32;14.80;99.90
17341;DHT22;8788;49.930;8.660;2023-04-24T13:41:59;14.70;99.90
17341;DHT22;8788;49.930;8.660;2023-04-24T13:44:26;14.70;99.90
17341;DHT22;8788;49.930;8.660;2023-04-24T13:46:54;14.50;99.90
17341;DHT22;8788;49.930;8.660;2023-04-24T13:49:23;14.30;99.90
17341;DHT22;8788;49.930;8.660;2023-04-24T13:51:52;14.20;99.90
17341;DHT22;8788;49.930;8.660;2023-04-24T13:54:19;14.10;99.90
17341;DHT22;8788;49.930;8.660;2023-04-24T13:56:47;14.00;99.90
17341;DHT22;8788;49.930;8.660;2023-04-24T13:59:15;13.90;99.90
17341;DHT22;8788;49.930;8.660;2023-04-24T14:01:42;13.90;99.90
17341;DHT22;8788;49.930;8.660;2023-04-24T14:04:10;13.80;99.90
17341;DHT22;8788;49.930;8.660;2023-04-24T14:06:37;13.80;99.90
17341;DHT22;8788;49.930;8.660;2023-04-24T14:09:05;13.90;99.90
17341;DHT22;8788;49.930;8.660;2023-04-24T14:11:33;13.90;99.90
17341;DHT22;8788;49.930;8.660;2023-04-24T14:14:02;13.90;99.90
17341;DHT22;8788;49.930;8.660;2023-04-24T14:16:29;14.00;99.90
17341;DHT22;8788;49.930;8.660;2023-04-24T14:18:57;14.10;99.90
17341;DHT22;8788;49.930;8.660;2023-04-24T14:21:24;14.20;99.90
17341;DHT22;8788;49.930;8.660;2023-04-24T14:23:51;14.10;99.90
17341;DHT22;8788;49.930;8.660;2023-04-24T14:26:19;14.10;99.90
17341;DHT22;8788;49.930;8.660;2023-04-24T14:28:46;14.00;99.90
17341;DHT22;8788;49.930;8.660;2023-04-24T14:31:14;13.90;99.90
17341;DHT22;8788;49.930;8.660;2023-04-24T14:33:41;13.90;99.90
17341;DHT22;8788;49.930;8.660;2023-04-24T14:36:09;13.90;99.90
17341;DHT22;8788;49.930;8.660;2023-04-24T14:38:36;13.90;99.90
17341;DHT22;8788;49.930;8.660;2023-04-24T14:41:03;13.90;99.90
17341;DHT22;8788;49.930;8.660;2023-04-24T14:43:35;13.90;99.90
17341;DHT22;8788;49.930;8.660;2023-04-24T14:46:02;13.90;99.90
17341;DHT22;8788;49.930;8.660;2023-04-24T14:48:30;14.00;99.90
17341;DHT22;8788;49.930;8.660;2023-04-24T14:50:57;14.00;99.90
17341;DHT22;8788;49.930;8.660;2023-04-24T14:53:25;14.00;99.90
17341;DHT22;8788;49.930;8.660;2023-04-24T14:55:52;14.00;99.90
17341;DHT22;8788;49.930;8.660;2023-04-24T14:58:19;13.90;99.90
17341;DHT22;8788;49.930;8.660;2023-04-24T15:00:46;13.90;99.90
17341;DHT22;8788;49.930;8.660;2023-04-24T15:03:15;13.90;99.90
17341;DHT22;8788;49.930;8.660;2023-04-24T15:05:44;14.00;99.90
17341;DHT22;8788;49.930;8.660;2023-04-24T15:08:11;14.00;99.90
17341;DHT22;8788;49.930;8.660;2023-04-24T15:10:38;14.00;99.90
17341;DHT22;8788;49.930;8.660;2023-04-24T15:13:05;14.00;99.90
17341;DHT22;8788;49.930;8.660;2023-04-24T15:15:33;14.20;99.90
17341;DHT22;8788;49.930;8.660;2023-04-24T15:18:00;14.20;99.90
17341;DHT22;8788;49.930;8.660;2023-04-24T15:20:27;14.30;99.90
17341;DHT22;8788;49.930;8.660;2023-04-24T15:22:55;14.40;99.90
17341;DHT22;8788;49.930;8.660;2023-04-24T15:25:24;14.60;99.90
17341;DHT22;8788;49.930;8.660;2023-04-24T15:27:52;15.30;99.90
17341;DHT22;8788;49.930;8.660;2023-04-24T15:30:19;15.80;99.90
17341;DHT22;8788;49.930;8.660;2023-04-24T15:32:46;16.30;99.90
17341;DHT22;8788;49.930;8.660;2023-04-24T15:35:13;16.60;99.90
17341;DHT22;8788;49.930;8.660;2023-04-24T15:37:40;16.70;99.90
17341;DHT22;8788;49.930;8.660;2023-04-24T15:40:10;16.50;99.70
17341;DHT22;8788;49.930;8.660;2023-04-24T15:42:39;16.20;99.90
17341;DHT22;8788;49.930;8.660;2023-04-24T15:45:07;15.90;99.90
17341;DHT22;8788;49.930;8.660;2023-04-24T15:47:34;15.70;99.90
17341;DHT22;8788;49.930;8.660;2023-04-24T15:50:02;15.50;99.90
17341;DHT22;8788;49.930;8.660;2023-04-24T15:52:29;15.40;99.90
17341;DHT22;8788;49.930;8.660;2023-04-24T15:54:56;15.70;99.90
17341;DHT22;8788;49.930;8.660;2023-04-24T15:57:25;15.80;99.90